createdAt,value
2018-06-17T00:00:00.487Z,18.50
2018-06-17T00:02:05.267Z,18.50
2018-06-17T00:04:10.297Z,18.40
2018-06-17T00:06:15.196Z,18.40
2018-06-17T00:08:20.291Z,18.40
2018-06-17T00:10:25.379Z,18.30
2018-06-17T00:12:30.146Z,18.20
2018-06-17T00:14:34.970Z,18.10
2018-06-17T00:16:39.797Z,18.00
2018-06-17T00:18:44.559Z,18.00
2018-06-17T00:20:49.255Z,18.00
2018-06-17T00:22:54.009Z,18.00
2018-06-17T00:24:58.684Z,18.10
2018-06-17T00:27:03.573Z,18.00
2018-06-17T00:29:08.381Z,17.80
2018-06-17T00:31:13.198Z,17.70
2018-06-17T00:33:18.222Z,17.60
2018-06-17T00:35:22.932Z,17.60
2018-06-17T00:37:27.509Z,17.50
2018-06-17T00:39:32.238Z,17.40
2018-06-17T00:41:37.165Z,17.40
2018-06-17T00:43:42.034Z,17.40
2018-06-17T00:45:47.009Z,17.40
2018-06-17T00:47:51.945Z,17.40
2018-06-17T00:49:56.805Z,17.40
2018-06-17T00:52:01.482Z,17.40
2018-06-17T00:54:06.827Z,17.50
2018-06-17T00:56:11.694Z,17.40
2018-06-17T00:58:16.645Z,17.40
2018-06-17T01:00:23.109Z,17.40
2018-06-17T01:02:28.108Z,17.60
2018-06-17T01:04:33.013Z,17.60
2018-06-17T01:06:37.841Z,17.60
2018-06-17T01:08:42.501Z,17.60
2018-06-17T01:10:47.151Z,17.50
2018-06-17T01:12:51.961Z,17.40
2018-06-17T01:14:56.807Z,17.40
2018-06-17T01:17:01.648Z,17.30
2018-06-17T01:19:06.310Z,17.20
2018-06-17T01:21:11.735Z,17.00
2018-06-17T01:23:16.619Z,17.10
2018-06-17T01:25:21.539Z,17.00
2018-06-17T01:27:26.310Z,17.00
2018-06-17T01:29:31.190Z,17.00
2018-06-17T01:31:36.038Z,17.00
2018-06-17T01:33:40.954Z,16.90
2018-06-17T01:35:45.714Z,17.00
2018-06-17T01:37:50.560Z,17.00
2018-06-17T01:39:55.719Z,17.00
2018-06-17T01:42:00.599Z,16.90
2018-06-17T01:44:05.438Z,16.80
2018-06-17T01:46:10.139Z,16.80
2018-06-17T01:48:14.852Z,16.70
2018-06-17T01:50:19.564Z,16.60
2018-06-17T01:52:24.294Z,16.60
2018-06-17T01:54:29.156Z,16.60
2018-06-17T01:56:33.882Z,16.50
2018-06-17T01:58:38.581Z,16.50
2018-06-17T02:00:43.251Z,16.50
2018-06-17T02:02:47.982Z,16.50
2018-06-17T02:04:57.826Z,16.50
2018-06-17T02:07:07.589Z,16.50
2018-06-17T02:09:17.584Z,16.60
2018-06-17T02:11:27.455Z,16.60
2018-06-17T02:13:32.264Z,16.60
2018-06-17T02:15:37.017Z,16.70
2018-06-17T02:17:41.760Z,16.80
2018-06-17T02:19:46.576Z,16.80
2018-06-17T02:21:51.267Z,16.80
2018-06-17T02:23:55.993Z,16.80
2018-06-17T02:26:00.657Z,16.80
2018-06-17T02:28:05.531Z,16.80
2018-06-17T02:30:10.190Z,16.90
2018-06-17T02:32:15.130Z,16.90
2018-06-17T02:34:19.792Z,16.90
2018-06-17T02:36:24.502Z,16.90
2018-06-17T02:38:29.212Z,16.90
2018-06-17T02:40:33.911Z,16.90
2018-06-17T02:42:39.546Z,16.90
2018-06-17T02:44:44.205Z,17.00
2018-06-17T02:46:54.000Z,17.00
2018-06-17T02:49:03.840Z,16.90
2018-06-17T02:51:13.475Z,17.00
2018-06-17T02:53:23.206Z,17.00
2018-06-17T02:55:27.924Z,17.10
2018-06-17T02:57:32.663Z,17.10
2018-06-17T02:59:37.498Z,17.10
2018-06-17T03:01:42.306Z,17.10
2018-06-17T03:03:47.137Z,17.10
2018-06-17T03:05:51.962Z,17.10
2018-06-17T03:07:56.691Z,17.10
2018-06-17T03:10:02.206Z,17.10
2018-06-17T03:12:07.483Z,17.00
2018-06-17T03:14:12.143Z,17.00
2018-06-17T03:16:16.977Z,17.00
2018-06-17T03:18:21.726Z,17.10
2018-06-17T03:20:26.439Z,17.10
2018-06-17T03:22:31.136Z,17.10
2018-06-17T03:24:40.841Z,17.10
2018-06-17T03:26:50.598Z,17.10
2018-06-17T03:29:00.228Z,17.20
2018-06-17T03:31:10.195Z,17.20
2018-06-17T03:33:20.029Z,17.10
2018-06-17T03:35:29.741Z,17.10
2018-06-17T03:37:34.477Z,17.10
2018-06-17T03:39:39.242Z,17.10
2018-06-17T03:41:43.912Z,17.10
2018-06-17T03:43:49.565Z,17.10
2018-06-17T03:45:54.357Z,17.10
2018-06-17T03:47:59.288Z,17.10
2018-06-17T03:50:04.341Z,17.10
2018-06-17T03:52:09.199Z,17.10
2018-06-17T03:54:14.051Z,17.10
2018-06-17T03:56:19.136Z,17.10
2018-06-17T03:58:24.172Z,17.10
2018-06-17T04:00:29.004Z,17.00
2018-06-17T04:02:35.162Z,17.10
2018-06-17T04:04:44.972Z,17.00
2018-06-17T04:06:59.466Z,17.10
2018-06-17T04:09:05.362Z,17.10
2018-06-17T04:11:10.164Z,17.10
2018-06-17T04:13:14.794Z,17.10
2018-06-17T04:15:19.365Z,17.10
2018-06-17T04:17:24.596Z,17.10
2018-06-17T04:19:29.457Z,17.20
2018-06-17T04:21:34.070Z,17.20
2018-06-17T04:23:38.711Z,17.20
2018-06-17T04:25:43.549Z,17.10
2018-06-17T04:27:48.298Z,17.10
2018-06-17T04:29:52.996Z,17.10
2018-06-17T04:31:57.633Z,17.20
2018-06-17T04:34:02.295Z,17.20
2018-06-17T04:36:07.246Z,17.20
2018-06-17T04:40:16.258Z,17.20
2018-06-17T04:42:20.932Z,17.30
2018-06-17T04:44:25.652Z,17.20
2018-06-17T04:46:30.356Z,17.30
2018-06-17T04:48:35.053Z,17.30
2018-06-17T04:50:39.680Z,17.40
2018-06-17T04:52:44.353Z,17.40
2018-06-17T04:54:48.983Z,17.50
2018-06-17T04:56:53.633Z,17.40
2018-06-17T04:58:58.346Z,17.40
2018-06-17T05:01:03.014Z,17.50
2018-06-17T05:03:07.670Z,17.40
2018-06-17T05:05:12.638Z,17.40
2018-06-17T05:07:17.255Z,17.40
2018-06-17T05:09:21.934Z,17.30
2018-06-17T05:11:26.614Z,17.30
2018-06-17T05:13:31.205Z,17.40
2018-06-17T05:15:35.825Z,17.30
2018-06-17T05:17:40.605Z,17.30
2018-06-17T05:19:45.314Z,17.30
2018-06-17T05:21:49.998Z,17.40
2018-06-17T05:23:54.708Z,17.40
2018-06-17T05:25:59.355Z,17.50
2018-06-17T05:28:04.052Z,17.50
2018-06-17T05:30:08.764Z,17.60
2018-06-17T05:32:13.678Z,17.60
2018-06-17T05:34:18.447Z,17.70
2018-06-17T05:36:23.316Z,17.80
2018-06-17T05:38:27.967Z,17.80
2018-06-17T05:40:32.637Z,17.90
2018-06-17T05:42:37.330Z,18.00
2018-06-17T05:44:42.060Z,18.00
2018-06-17T05:46:46.736Z,18.00
2018-06-17T05:48:51.680Z,18.10
2018-06-17T05:50:56.479Z,18.10
2018-06-17T05:53:01.088Z,18.20
2018-06-17T05:55:05.858Z,18.20
2018-06-17T05:57:11.116Z,18.10
2018-06-17T05:59:16.324Z,18.20
2018-06-17T06:01:21.124Z,18.30
2018-06-17T06:03:25.951Z,18.30
2018-06-17T06:05:31.126Z,18.30
2018-06-17T06:07:36.035Z,18.40
2018-06-17T06:09:40.808Z,18.30
2018-06-17T06:11:45.519Z,18.30
2018-06-17T06:13:50.289Z,18.40
2018-06-17T06:15:55.075Z,18.40
2018-06-17T06:17:59.950Z,18.40
2018-06-17T06:20:05.053Z,18.50
2018-06-17T06:22:09.801Z,18.60
2018-06-17T06:24:14.469Z,18.30
2018-06-17T06:26:19.351Z,18.20
2018-06-17T06:28:24.335Z,18.20
2018-06-17T06:30:29.109Z,18.30
2018-06-17T06:32:34.794Z,18.30
2018-06-17T06:34:39.554Z,18.30
2018-06-17T06:36:44.421Z,18.40
2018-06-17T06:38:49.814Z,18.70
2018-06-17T06:40:54.586Z,18.70
2018-06-17T06:42:59.317Z,18.70
2018-06-17T06:45:04.096Z,18.80
2018-06-17T06:47:08.722Z,18.80
2018-06-17T06:49:13.431Z,18.60
2018-06-17T06:51:18.159Z,18.70
2018-06-17T06:55:27.300Z,18.80
2018-06-17T06:57:32.996Z,18.90
2018-06-17T06:59:37.661Z,18.80
2018-06-17T07:01:58.812Z,18.80
2018-06-17T07:04:20.126Z,18.80
2018-06-17T07:06:41.235Z,18.90
2018-06-17T07:11:07.723Z,19.00
2018-06-17T07:13:12.568Z,19.00
2018-06-17T07:15:19.134Z,19.10
2018-06-17T07:17:40.989Z,19.10
2018-06-17T07:19:45.807Z,19.20
2018-06-17T07:21:50.705Z,19.10
2018-06-17T07:23:55.559Z,19.10
2018-06-17T07:26:46.751Z,19.10
2018-06-17T07:29:08.358Z,19.00
2018-06-17T07:31:13.165Z,19.00
2018-06-17T07:33:17.994Z,19.10
2018-06-17T07:35:22.845Z,19.10
2018-06-17T07:37:27.576Z,19.00
2018-06-17T07:41:46.134Z,19.00
2018-06-17T07:43:51.056Z,19.00
2018-06-17T07:45:55.763Z,19.20
2018-06-17T07:48:00.934Z,19.10
2018-06-17T07:50:22.282Z,19.10
2018-06-17T07:52:43.626Z,19.20
2018-06-17T07:54:48.824Z,19.10
2018-06-17T07:56:53.776Z,19.20
2018-06-17T07:58:58.554Z,19.20
2018-06-17T08:01:03.373Z,19.30
2018-06-17T08:03:08.163Z,19.30
2018-06-17T08:05:13.085Z,19.20
2018-06-17T08:07:17.796Z,19.30
2018-06-17T08:09:23.000Z,19.50
2018-06-17T08:11:27.738Z,19.50
2018-06-17T08:13:32.494Z,19.70
2018-06-17T08:15:37.365Z,19.60
2018-06-17T08:17:42.213Z,19.70
2018-06-17T08:19:47.020Z,19.70
2018-06-17T08:21:53.006Z,19.90
2018-06-17T08:23:57.911Z,19.90
2018-06-17T08:26:02.825Z,19.70
2018-06-17T08:28:07.840Z,19.80
2018-06-17T08:30:12.693Z,19.70
2018-06-17T08:32:17.585Z,19.70
2018-06-17T08:34:22.577Z,19.60
2018-06-17T08:36:27.367Z,19.50
2018-06-17T08:38:32.116Z,19.60
2018-06-17T08:40:37.001Z,19.80
2018-06-17T08:42:41.892Z,19.90
2018-06-17T08:44:46.812Z,19.90
2018-06-17T08:46:52.119Z,19.90
2018-06-17T08:48:57.036Z,19.90
2018-06-17T08:51:01.888Z,19.90
2018-06-17T08:53:06.920Z,20.10
2018-06-17T08:55:11.829Z,20.20
2018-06-17T08:57:16.732Z,20.10
2018-06-17T08:59:22.699Z,20.00
2018-06-17T09:01:28.369Z,20.10
2018-06-17T09:03:33.355Z,20.00
2018-06-17T09:05:38.274Z,19.90
2018-06-17T09:07:43.354Z,19.90
2018-06-17T09:09:48.183Z,19.90
2018-06-17T09:11:53.015Z,20.00
2018-06-17T09:13:57.841Z,20.10
2018-06-17T09:16:02.925Z,20.10
2018-06-17T09:18:07.831Z,20.20
2018-06-17T09:20:13.026Z,20.10
2018-06-17T09:22:17.892Z,20.20
2018-06-17T09:24:22.764Z,20.20
2018-06-17T09:26:27.596Z,20.30
2018-06-17T09:28:32.696Z,20.10
2018-06-17T09:30:37.560Z,20.00
2018-06-17T09:32:42.468Z,20.00
2018-06-17T09:34:47.378Z,20.20
2018-06-17T09:36:52.254Z,20.20
2018-06-17T09:38:57.023Z,20.10
2018-06-17T09:41:01.865Z,20.40
2018-06-17T09:43:06.733Z,20.20
2018-06-17T09:45:11.507Z,20.30
2018-06-17T09:47:16.268Z,20.30
2018-06-17T09:49:21.304Z,20.30
2018-06-17T09:51:26.213Z,20.30
2018-06-17T09:53:31.002Z,20.40
2018-06-17T09:55:35.963Z,20.30
2018-06-17T09:57:40.821Z,20.40
2018-06-17T09:59:45.631Z,20.40
2018-06-17T10:01:50.505Z,20.20
2018-06-17T10:03:55.366Z,20.00
2018-06-17T10:06:00.109Z,20.20
2018-06-17T10:08:04.963Z,20.30
2018-06-17T10:10:54.851Z,20.30
2018-06-17T10:12:59.705Z,20.40
2018-06-17T10:15:04.555Z,20.30
2018-06-17T10:17:09.445Z,20.30
2018-06-17T10:19:14.504Z,20.30
2018-06-17T10:21:20.294Z,20.40
2018-06-17T10:23:25.381Z,20.40
2018-06-17T10:25:30.153Z,20.50
2018-06-17T10:27:34.993Z,20.50
2018-06-17T10:29:39.873Z,20.50
2018-06-17T10:31:44.851Z,20.60
2018-06-17T10:33:49.751Z,20.60
2018-06-17T10:35:54.736Z,20.60
2018-06-17T10:37:59.673Z,20.50
2018-06-17T10:40:04.590Z,20.40
2018-06-17T10:42:09.375Z,20.20
2018-06-17T10:44:14.255Z,20.00
2018-06-17T10:46:19.042Z,20.00
2018-06-17T10:48:23.951Z,19.80
2018-06-17T10:50:28.832Z,19.80
2018-06-17T10:52:33.828Z,19.70
2018-06-17T10:54:38.847Z,19.70
2018-06-17T10:56:43.657Z,19.70
2018-06-17T10:58:48.447Z,19.60
2018-06-17T11:00:53.316Z,19.70
2018-06-17T11:02:58.144Z,19.70
2018-06-17T11:05:03.108Z,20.10
2018-06-17T11:07:08.031Z,20.30
2018-06-17T11:09:13.452Z,20.30
2018-06-17T11:11:18.543Z,20.40
2018-06-17T11:13:23.310Z,20.40
2018-06-17T11:15:28.707Z,20.80
2018-06-17T11:17:33.605Z,20.90
2018-06-17T11:19:38.665Z,20.80
2018-06-17T11:21:43.556Z,20.60
2018-06-17T11:23:48.977Z,20.50
2018-06-17T11:25:53.999Z,20.20
2018-06-17T11:27:58.995Z,20.00
2018-06-17T11:30:04.156Z,20.10
2018-06-17T11:32:09.516Z,20.30
2018-06-17T11:34:14.793Z,20.30
2018-06-17T11:36:20.036Z,20.20
2018-06-17T11:38:25.233Z,20.10
2018-06-17T11:40:30.610Z,20.10
2018-06-17T11:42:35.670Z,20.20
2018-06-17T11:44:41.303Z,20.10
2018-06-17T11:46:46.659Z,20.10
2018-06-17T11:48:51.960Z,20.20
2018-06-17T11:51:03.556Z,20.20
2018-06-17T11:53:09.508Z,20.10
2018-06-17T11:55:14.586Z,20.10
2018-06-17T11:57:19.842Z,20.00
2018-06-17T11:59:25.058Z,19.90
2018-06-17T12:01:30.020Z,19.80
2018-06-17T12:03:34.943Z,19.80
2018-06-17T12:05:41.628Z,19.70
2018-06-17T12:07:47.074Z,19.70
2018-06-17T12:10:04.548Z,19.80
2018-06-17T12:12:09.661Z,19.80
2018-06-17T12:14:14.597Z,19.70
2018-06-17T12:16:19.629Z,19.80
2018-06-17T12:18:24.620Z,20.00
2018-06-17T12:20:29.568Z,20.00
2018-06-17T12:22:34.708Z,20.00
2018-06-17T12:24:39.718Z,20.00
2018-06-17T12:26:44.898Z,20.10
2018-06-17T12:28:50.259Z,20.30
2018-06-17T12:30:55.658Z,20.20
2018-06-17T12:33:01.539Z,20.30
2018-06-17T12:35:06.628Z,20.20
2018-06-17T12:37:12.774Z,20.10
2018-06-17T12:39:17.650Z,19.90
2018-06-17T12:41:22.708Z,20.00
2018-06-17T12:43:27.909Z,20.10
2018-06-17T12:45:32.909Z,20.10
2018-06-17T12:47:37.831Z,20.00
2018-06-17T12:49:42.866Z,20.00
2018-06-17T12:51:48.176Z,19.90
2018-06-17T12:53:53.203Z,20.10
2018-06-17T12:55:58.343Z,20.10
2018-06-17T12:58:03.333Z,20.10
2018-06-17T13:00:08.625Z,20.10
2018-06-17T13:02:13.551Z,20.10
2018-06-17T13:04:19.481Z,20.30
2018-06-17T13:06:24.799Z,20.30
2018-06-17T13:08:29.945Z,20.40
2018-06-17T13:10:36.051Z,20.60
2018-06-17T13:12:43.070Z,20.60
2018-06-17T13:14:49.484Z,20.70
2018-06-17T13:16:57.443Z,20.80
2018-06-17T13:19:03.209Z,20.90
2018-06-17T13:21:09.513Z,21.00
2018-06-17T13:23:14.698Z,20.80
2018-06-17T13:25:19.888Z,20.90
2018-06-17T13:27:24.906Z,20.90
2018-06-17T13:29:30.082Z,21.00
2018-06-17T13:31:35.000Z,20.90
2018-06-17T13:33:39.864Z,20.80
2018-06-17T13:35:44.823Z,21.00
2018-06-17T13:37:50.156Z,20.70
2018-06-17T13:39:55.093Z,20.70
2018-06-17T13:42:00.241Z,20.70
2018-06-17T13:44:05.254Z,20.60
2018-06-17T13:46:10.404Z,20.50
2018-06-17T13:48:15.889Z,20.50
2018-06-17T13:50:23.523Z,20.40
2018-06-17T13:52:28.850Z,20.30
2018-06-17T13:54:33.693Z,20.20
2018-06-17T13:56:38.752Z,20.10
2018-06-17T13:58:43.906Z,20.20
2018-06-17T14:00:50.800Z,20.20
2018-06-17T14:02:55.716Z,20.20
2018-06-17T14:05:00.569Z,20.00
2018-06-17T14:07:05.493Z,20.10
2018-06-17T14:09:11.184Z,20.20
2018-06-17T14:11:16.244Z,20.30
2018-06-17T14:13:21.444Z,20.30
2018-06-17T14:15:26.398Z,20.30
2018-06-17T14:17:31.393Z,20.40
2018-06-17T14:19:36.303Z,20.50
2018-06-17T14:21:41.296Z,20.50
2018-06-17T14:23:46.482Z,20.20
2018-06-17T14:25:51.441Z,20.10
2018-06-17T14:27:56.912Z,19.90
2018-06-17T14:30:01.783Z,19.90
2018-06-17T14:32:06.948Z,19.90
2018-06-17T14:34:11.748Z,19.80
2018-06-17T14:36:16.763Z,19.90
2018-06-17T14:38:21.703Z,20.10
2018-06-17T14:40:27.717Z,20.00
2018-06-17T14:42:37.979Z,20.20
2018-06-17T14:44:50.302Z,20.30
2018-06-17T14:47:00.205Z,20.40
2018-06-17T14:49:10.291Z,20.40
2018-06-17T14:51:20.159Z,20.20
2018-06-17T14:53:27.086Z,20.20
2018-06-17T14:55:33.199Z,20.30
2018-06-17T14:57:38.715Z,20.20
2018-06-17T14:59:44.810Z,20.20
2018-06-17T15:01:49.799Z,20.00
2018-06-17T15:03:54.962Z,19.90
2018-06-17T15:06:00.021Z,20.00
2018-06-17T15:08:04.930Z,20.10
2018-06-17T15:10:10.073Z,19.90
2018-06-17T15:12:15.774Z,19.90
2018-06-17T15:14:20.689Z,20.00
2018-06-17T15:16:25.706Z,20.00
2018-06-17T15:18:32.832Z,20.00
2018-06-17T15:20:37.721Z,19.70
2018-06-17T15:22:44.481Z,19.60
2018-06-17T15:24:49.940Z,19.60
2018-06-17T15:26:55.061Z,19.60
2018-06-17T15:29:00.274Z,19.60
2018-06-17T15:31:10.351Z,19.80
2018-06-17T15:33:20.252Z,19.90
2018-06-17T15:35:30.297Z,20.00
2018-06-17T15:37:40.556Z,19.90
2018-06-17T15:39:53.267Z,19.90
2018-06-17T15:41:58.404Z,19.80
2018-06-17T15:44:03.744Z,19.50
2018-06-17T15:46:09.816Z,19.40
2018-06-17T15:48:17.577Z,19.60
2018-06-17T15:50:23.063Z,19.80
2018-06-17T15:52:28.238Z,19.80
2018-06-17T15:54:33.228Z,19.90
2018-06-17T15:56:40.152Z,19.80
2018-06-17T15:58:45.177Z,19.90
2018-06-17T16:00:50.495Z,20.00
2018-06-17T16:02:55.415Z,19.90
2018-06-17T16:05:00.516Z,19.80
2018-06-17T16:07:05.483Z,19.90
2018-06-17T16:09:12.143Z,19.70
2018-06-17T16:11:17.228Z,19.90
2018-06-17T16:13:27.373Z,20.10
2018-06-17T16:15:37.351Z,20.10
2018-06-17T16:17:50.975Z,20.20
2018-06-17T16:20:01.265Z,20.30
2018-06-17T16:22:11.826Z,20.30
2018-06-17T16:24:19.058Z,20.10
2018-06-17T16:26:24.019Z,20.20
2018-06-17T16:28:29.585Z,20.20
2018-06-17T16:30:34.529Z,20.30
2018-06-17T16:32:39.505Z,20.20
2018-06-17T16:34:44.404Z,20.10
2018-06-17T16:36:49.334Z,20.10
2018-06-17T16:38:54.208Z,20.10
2018-06-17T16:40:59.189Z,19.90
2018-06-17T16:43:04.084Z,20.00
2018-06-17T16:45:09.093Z,19.90
2018-06-17T16:47:14.285Z,19.90
2018-06-17T16:49:19.185Z,19.90
2018-06-17T16:51:29.075Z,19.70
2018-06-17T16:53:39.093Z,19.80
2018-06-17T16:55:49.043Z,19.80
2018-06-17T16:57:59.064Z,19.70
2018-06-17T17:00:08.136Z,19.60
2018-06-17T17:02:13.131Z,19.60
2018-06-17T17:04:17.914Z,19.50
2018-06-17T17:06:22.812Z,19.60
2018-06-17T17:08:27.759Z,19.70
2018-06-17T17:10:33.539Z,19.60
2018-06-17T17:12:38.463Z,19.50
2018-06-17T17:14:45.518Z,19.40
2018-06-17T17:16:50.782Z,19.50
2018-06-17T17:18:56.116Z,19.50
2018-06-17T17:21:01.886Z,19.30
2018-06-17T17:23:06.918Z,19.40
2018-06-17T17:25:12.518Z,19.40
2018-06-17T17:27:18.152Z,19.50
2018-06-17T17:29:24.014Z,19.60
2018-06-17T17:31:33.230Z,19.80
2018-06-17T17:33:43.281Z,19.80
2018-06-17T17:35:53.691Z,19.80
2018-06-17T17:38:04.932Z,20.00
2018-06-17T17:40:15.530Z,20.00
2018-06-17T17:42:21.370Z,19.80
2018-06-17T17:44:26.693Z,20.00
2018-06-17T17:47:34.317Z,19.90
2018-06-17T17:49:39.227Z,19.80
2018-06-17T17:51:44.269Z,19.80
2018-06-17T17:53:49.247Z,19.70
2018-06-17T17:55:54.227Z,19.90
2018-06-17T17:57:59.311Z,19.90
2018-06-17T18:00:04.515Z,19.80
2018-06-17T18:02:09.623Z,19.70
2018-06-17T18:04:14.486Z,19.80
2018-06-17T18:06:19.444Z,19.70
2018-06-17T18:08:24.405Z,19.70
2018-06-17T18:10:29.412Z,19.70
2018-06-17T18:12:34.804Z,19.70
2018-06-17T18:14:39.893Z,19.90
2018-06-17T18:16:45.038Z,20.00
2018-06-17T18:18:49.835Z,20.10
2018-06-17T18:20:55.258Z,20.20
2018-06-17T18:23:00.248Z,20.60
2018-06-17T18:25:10.713Z,20.90
2018-06-17T18:27:21.286Z,20.90
2018-06-17T18:29:31.176Z,21.10
2018-06-17T18:31:41.273Z,21.00
2018-06-17T18:33:51.025Z,20.60
2018-06-17T18:36:01.187Z,20.60
2018-06-17T18:38:06.439Z,20.60
2018-06-17T18:40:11.590Z,20.30
2018-06-17T18:42:17.674Z,20.00
2018-06-17T18:44:23.015Z,19.80
2018-06-17T18:46:28.368Z,19.80
2018-06-17T18:48:33.722Z,19.60
2018-06-17T18:50:39.313Z,19.60
2018-06-17T18:52:44.296Z,19.40
2018-06-17T18:54:49.880Z,19.40
2018-06-17T18:59:05.661Z,19.60
2018-06-17T19:01:11.600Z,19.40
2018-06-17T19:03:16.910Z,19.20
2018-06-17T19:05:25.263Z,19.30
2018-06-17T19:07:30.472Z,19.20
2018-06-17T19:09:44.333Z,19.20
2018-06-17T19:11:54.706Z,19.10
2018-06-17T19:14:11.143Z,19.00
2018-06-17T19:16:24.579Z,19.00
2018-06-17T19:18:33.063Z,18.90
2018-06-17T19:20:39.911Z,18.90
2018-06-17T19:22:45.307Z,18.90
2018-06-17T19:24:50.276Z,18.90
2018-06-17T19:26:55.942Z,19.00
2018-06-17T19:29:01.492Z,18.90
2018-06-17T19:31:06.531Z,18.70
2018-06-17T19:33:11.599Z,18.70
2018-06-17T19:35:16.831Z,18.60
2018-06-17T19:37:21.910Z,18.80
2018-06-17T19:39:27.941Z,18.80
2018-06-17T19:41:33.166Z,18.90
2018-06-17T19:43:39.853Z,18.90
2018-06-17T19:47:54.786Z,18.60
2018-06-17T19:50:06.603Z,18.60
2018-06-17T19:52:16.681Z,18.60
2018-06-17T19:54:27.897Z,18.70
2018-06-17T19:56:38.739Z,18.60
2018-06-17T19:58:50.168Z,18.50
2018-06-17T20:00:58.859Z,18.40
2018-06-17T20:03:07.119Z,18.30
2018-06-17T20:05:17.952Z,18.40
2018-06-17T20:07:28.291Z,18.50
2018-06-17T20:09:35.159Z,18.50
2018-06-17T20:11:42.426Z,18.60
2018-06-17T20:13:50.470Z,18.50
2018-06-17T20:15:56.255Z,18.40
2018-06-17T20:18:03.412Z,18.50
2018-06-17T20:20:09.698Z,18.50
2018-06-17T20:22:16.287Z,18.40
2018-06-17T20:24:22.606Z,18.40
2018-06-17T20:26:31.101Z,18.30
2018-06-17T20:28:38.194Z,18.40
2018-06-17T20:32:55.730Z,18.40
2018-06-17T20:35:07.635Z,18.40
2018-06-17T20:37:18.034Z,18.30
2018-06-17T20:39:28.489Z,18.40
2018-06-17T20:41:39.945Z,18.50
2018-06-17T20:43:51.353Z,18.50
2018-06-17T20:45:56.224Z,18.60
2018-06-17T20:48:01.124Z,18.60
2018-06-17T20:50:06.772Z,18.60
2018-06-17T20:52:11.925Z,18.60
2018-06-17T20:54:17.163Z,18.70
2018-06-17T20:56:22.213Z,18.60
2018-06-17T20:58:27.163Z,18.80
2018-06-17T21:00:32.264Z,18.90
2018-06-17T21:02:37.307Z,18.80
2018-06-17T21:04:42.566Z,18.80
2018-06-17T21:06:47.587Z,18.70
2018-06-17T21:08:53.539Z,18.60
2018-06-17T21:10:59.926Z,18.50
2018-06-17T21:13:05.802Z,18.40
2018-06-17T21:17:23.788Z,18.30
2018-06-17T21:19:33.882Z,18.30
2018-06-17T21:21:43.794Z,18.30
2018-06-17T21:23:53.758Z,18.20
2018-06-17T21:28:08.707Z,18.20
2018-06-17T21:30:13.643Z,18.20
2018-06-17T21:32:18.478Z,18.20
2018-06-17T21:34:24.342Z,18.20
2018-06-17T21:36:29.135Z,18.20
2018-06-17T21:38:34.265Z,18.20
2018-06-17T21:40:39.176Z,18.20
2018-06-17T21:42:43.959Z,18.20
2018-06-17T21:44:48.715Z,18.30
2018-06-17T21:46:53.909Z,18.30
2018-06-17T21:48:58.749Z,18.30
2018-06-17T21:51:03.793Z,18.20
2018-06-17T21:53:08.724Z,18.20
2018-06-17T21:55:13.554Z,18.20
2018-06-17T21:57:18.399Z,18.20
2018-06-17T21:59:23.349Z,18.20
2018-06-17T22:01:28.204Z,18.20
2018-06-17T22:03:32.934Z,18.20
2018-06-17T22:05:37.800Z,18.20
2018-06-17T22:07:47.524Z,18.20
2018-06-17T22:09:57.381Z,18.20
2018-06-17T22:13:08.426Z,18.20
2018-06-17T22:15:18.371Z,18.20
2018-06-17T22:17:28.111Z,18.20
2018-06-17T22:19:32.949Z,18.20
2018-06-17T22:21:37.666Z,18.20
2018-06-17T22:23:42.585Z,18.20
2018-06-17T22:25:48.126Z,18.20
2018-06-17T22:27:53.667Z,18.10
2018-06-17T22:29:59.748Z,18.20
2018-06-17T22:32:04.897Z,18.20
2018-06-17T22:34:10.031Z,18.20
2018-06-17T22:36:15.379Z,18.20
2018-06-17T22:40:24.924Z,18.20
2018-06-17T22:42:29.847Z,18.10
2018-06-17T22:44:34.664Z,18.20
2018-06-17T22:46:39.518Z,18.10
2018-06-17T22:48:44.157Z,18.10
2018-06-17T22:50:48.912Z,18.10
2018-06-17T22:53:10.050Z,18.10
2018-06-17T22:55:14.709Z,18.10
2018-06-17T22:57:24.535Z,18.10
2018-06-17T22:59:34.385Z,18.10
2018-06-17T23:01:44.142Z,18.20
2018-06-17T23:03:54.190Z,18.30
2018-06-17T23:06:04.010Z,18.30
2018-06-17T23:08:13.825Z,18.20
2018-06-17T23:10:18.511Z,18.00
2018-06-17T23:12:23.397Z,18.00
2018-06-17T23:14:28.086Z,18.00
2018-06-17T23:16:32.981Z,18.10
2018-06-17T23:18:37.895Z,18.00
2018-06-17T23:20:42.663Z,18.10
2018-06-17T23:22:47.553Z,18.00
2018-06-17T23:24:55.373Z,18.00
2018-06-17T23:27:00.404Z,18.00
2018-06-17T23:29:05.163Z,17.90
2018-06-17T23:31:10.304Z,17.90
2018-06-17T23:33:15.168Z,18.00
2018-06-17T23:35:20.177Z,17.90
2018-06-17T23:37:25.096Z,17.90
2018-06-17T23:39:30.282Z,18.00
2018-06-17T23:41:35.461Z,18.00
2018-06-17T23:43:40.896Z,18.00
2018-06-17T23:45:51.016Z,18.00
2018-06-17T23:48:01.084Z,18.10
2018-06-17T23:50:11.164Z,18.10
2018-06-17T23:52:21.083Z,18.10
2018-06-17T23:54:30.873Z,18.20
2018-06-17T23:56:35.776Z,18.10
2018-06-17T23:58:40.856Z,18.00
